Observation data for Anton on 02/14/2020      Previous  Date  Next       Current Mesonet Observations  Soil Data  Daily Summary Page  Observations in Plain Language
KAOS 140600Z 12018KT M02/M04 A3026 RMK A01 T10221037  RH  090%=      5-min Rain = 0
KAOS 140605Z 12018KT M02/M04 A3026 RMK A01 T10221037  RH  090%=      5-min Rain = 0
KAOS 140610Z 13016KT M02/M04 A3026 RMK A01 T10221036  RH  091%=      5-min Rain = 0
KAOS 140615Z 13016KT M02/M04 A3026 RMK A01 T10231037  RH  090%=      5-min Rain = 0
KAOS 140620Z 12016KT M02/M04 A3026 RMK A01 T10241038  RH  090%=      5-min Rain = 0
KAOS 140625Z 13016KT M02/M04 A3026 RMK A01 T10241039  RH  090%=      5-min Rain = 0
KAOS 140630Z 12016KT M03/M04 A3027 RMK A01 T10251039  RH  090%=      5-min Rain = 0
KAOS 140635Z 12015KT M03/M04 A3027 RMK A01 T10251039  RH  091%=      5-min Rain = 0
KAOS 140640Z 13016KT M03/M04 A3027 RMK A01 T10251039  RH  091%=      5-min Rain = 0
KAOS 140645Z 13014KT M03/M04 A3027 RMK A01 T10251039  RH  091%=      5-min Rain = 0
KAOS 140650Z 13015KT M03/M04 A3027 RMK A01 T10251040  RH  090%=      5-min Rain = 0
KAOS 140655Z 13015KT M03/M04 A3027 RMK A01 T10261040  RH  090%=      5-min Rain = 0
KAOS 140700Z 13016KT M03/M04 A3027 RMK A01 T10271043  RH  089%=      5-min Rain = 0
KAOS 140705Z 13015KT M03/M04 A3027 RMK A01 T10271044  RH  089%=      5-min Rain = 0
KAOS 140710Z 13016KT M03/M05 A3027 RMK A01 T10281046  RH  088%=      5-min Rain = 0
KAOS 140715Z 13016KT M03/M05 A3027 RMK A01 T10291048  RH  087%=      5-min Rain = 0
KAOS 140720Z 13014KT M03/M05 A3027 RMK A01 T10301049  RH  087%=      5-min Rain = 0
KAOS 140725Z 13014KT M03/M05 A3028 RMK A01 T10301049  RH  087%=      5-min Rain = 0
KAOS 140730Z 13013KT M03/M05 A3028 RMK A01 T10321050  RH  087%=      5-min Rain = 0
KAOS 140735Z 13012KT M03/M05 A3028 RMK A01 T10331051  RH  087%=      5-min Rain = 0
KAOS 140740Z 13013KT M03/M05 A3028 RMK A01 T10341052  RH  087%=      5-min Rain = 0
KAOS 140745Z 13011KT M03/M05 A3028 RMK A01 T10341053  RH  087%=      5-min Rain = 0
KAOS 140750Z 13011KT M04/M05 A3028 RMK A01 T10351053  RH  088%=      5-min Rain = 0
KAOS 140755Z 12010KT M04/M05 A3028 RMK A01 T10361053  RH  088%=      5-min Rain = 0
KAOS 140800Z 13011KT M04/M05 A3028 RMK A01 T10371054  RH  088%=      5-min Rain = 0
KAOS 140805Z 13010KT M04/M05 A3028 RMK A01 T10371054  RH  088%=      5-min Rain = 0
KAOS 140810Z 12010KT M04/M05 A3028 RMK A01 T10361053  RH  089%=      5-min Rain = 0
KAOS 140815Z 13010KT M04/M05 A3028 RMK A01 T10351052  RH  088%=      5-min Rain = 0
KAOS 140820Z 13010KT M04/M05 A3028 RMK A01 T10351052  RH  088%=      5-min Rain = 0
KAOS 140825Z 13012KT M04/M05 A3028 RMK A01 T10351052  RH  088%=      5-min Rain = 0
KAOS 140830Z 13012KT M04/M05 A3028 RMK A01 T10351052  RH  088%=      5-min Rain = 0
KAOS 140835Z 13013KT M04/M05 A3028 RMK A01 T10351052  RH  088%=      5-min Rain = 0
KAOS 140840Z 13012KT M04/M05 A3028 RMK A01 T10351052  RH  088%=      5-min Rain = 0
KAOS 140845Z 13013KT M04/M05 A3028 RMK A01 T10351052  RH  088%=      5-min Rain = 0
KAOS 140850Z 13013KT M04/M05 A3028 RMK A01 T10351052  RH  088%=      5-min Rain = 0
KAOS 140855Z 13012KT M04/M05 A3028 RMK A01 T10351052  RH  088%=      5-min Rain = 0
KAOS 140900Z 13011KT M04/M05 A3028 RMK A01 T10361053  RH  089%=      5-min Rain = 0
KAOS 140905Z 13010KT M04/M05 A3028 RMK A01 T10351051  RH  089%=      5-min Rain = 0
KAOS 140910Z 13012KT M04/M05 A3028 RMK A01 T10361052  RH  089%=      5-min Rain = 0
KAOS 140915Z 13012KT M04/M05 A3028 RMK A01 T10361051  RH  090%=      5-min Rain = 0
KAOS 140920Z 13011KT M04/M05 A3028 RMK A01 T10361050  RH  090%=      5-min Rain = 0
KAOS 140925Z 12011KT M04/M05 A3028 RMK A01 T10361050  RH  090%=      5-min Rain = 0
KAOS 140930Z 12012KT M04/M05 A3028 RMK A01 T10361051  RH  089%=      5-min Rain = 0
KAOS 140935Z 13012KT M04/M05 A3028 RMK A01 T10361052  RH  089%=      5-min Rain = 0
KAOS 140940Z 13013KT M04/M05 A3028 RMK A01 T10361052  RH  089%=      5-min Rain = 0
KAOS 140945Z 13012KT M04/M05 A3028 RMK A01 T10361052  RH  089%=      5-min Rain = 0
KAOS 140950Z 13013KT M04/M05 A3028 RMK A01 T10371052  RH  090%=      5-min Rain = 0
KAOS 140955Z 13012KT M04/M05 A3028 RMK A01 T10371052  RH  090%=      5-min Rain = 0
KAOS 141000Z 13011KT M04/M05 A3028 RMK A01 T10371051  RH  091%=      5-min Rain = 0
KAOS 141005Z 14011KT M04/M05 A3028 RMK A01 T10371050  RH  091%=      5-min Rain = 0
KAOS 141010Z 13011KT M04/M05 A3028 RMK A01 T10371050  RH  091%=      5-min Rain = 0
KAOS 141015Z 13012KT M04/M05 A3028 RMK A01 T10381050  RH  092%=      5-min Rain = 0
KAOS 141020Z 13011KT M04/M05 A3028 RMK A01 T10381049  RH  092%=      5-min Rain = 0
KAOS 141025Z 13010KT M04/M05 A3028 RMK A01 T10371049  RH  092%=      5-min Rain = 0
KAOS 141030Z 13011KT M04/M05 A3028 RMK A01 T10371049  RH  092%=      5-min Rain = 0
KAOS 141035Z 13010KT M04/M05 A3028 RMK A01 T10371048  RH  092%=      5-min Rain = 0
KAOS 141040Z 13009KT M04/M05 A3028 RMK A01 T10371048  RH  092%=      5-min Rain = 0
KAOS 141045Z 12009KT M04/M05 A3028 RMK A01 T10371049  RH  092%=      5-min Rain = 0
KAOS 141050Z 13009KT M04/M05 A3028 RMK A01 T10371049  RH  092%=      5-min Rain = 0
KAOS 141055Z 13010KT M04/M05 A3028 RMK A01 T10371049  RH  092%=      5-min Rain = 0
KAOS 141100Z 13009KT M04/M05 A3028 RMK A01 T10381050  RH  092%=      5-min Rain = 0
KAOS 141105Z 13010KT M04/M05 A3028 RMK A01 T10371048  RH  092%=      5-min Rain = 0
KAOS 141110Z 13010KT M04/M05 A3028 RMK A01 T10371049  RH  092%=      5-min Rain = 0
KAOS 141115Z 13010KT M04/M05 A3027 RMK A01 T10371049  RH  092%=      5-min Rain = 0
KAOS 141120Z 13011KT M04/M05 A3028 RMK A01 T10371050  RH  091%=      5-min Rain = 0
KAOS 141125Z 13011KT M04/M05 A3028 RMK A01 T10371050  RH  091%=      5-min Rain = 0
KAOS 141130Z 12011KT M04/M05 A3028 RMK A01 T10381051  RH  091%=      5-min Rain = 0
KAOS 141135Z 13011KT M04/M05 A3028 RMK A01 T10371050  RH  091%=      5-min Rain = 0
KAOS 141140Z 13010KT M04/M05 A3028 RMK A01 T10371049  RH  092%=      5-min Rain = 0
KAOS 141145Z 13011KT M04/M05 A3028 RMK A01 T10371049  RH  092%=      5-min Rain = 0
KAOS 141150Z 13012KT M04/M05 A3028 RMK A01 T10371049  RH  092%=      5-min Rain = 0
KAOS 141155Z 13011KT M04/M05 A3028 RMK A01 T10371048  RH  092%=      5-min Rain = 0
KAOS 141200Z 13011KT M04/M05 A3028 RMK A01 T10371048  RH  092%=      5-min Rain = 0
KAOS 141205Z 13011KT M04/M05 A3028 RMK A01 T10371048  RH  093%=      5-min Rain = 0
KAOS 141210Z 13012KT M04/M05 A3028 RMK A01 T10371048  RH  093%=      5-min Rain = 0
KAOS 141215Z 14011KT M04/M05 A3028 RMK A01 T10371047  RH  093%=      5-min Rain = 0
KAOS 141220Z 14011KT M04/M05 A3028 RMK A01 T10371047  RH  093%=      5-min Rain = 0
KAOS 141225Z 14012KT M04/M05 A3028 RMK A01 T10371047  RH  093%=      5-min Rain = 0
KAOS 141230Z 15010KT M04/M05 A3028 RMK A01 T10371046  RH  094%=      5-min Rain = 0
KAOS 141235Z 14010KT M04/M05 A3028 RMK A01 T10371045  RH  095%=      5-min Rain = 0
KAOS 141240Z 14010KT M04/M04 A3028 RMK A01 T10371044  RH  095%=      5-min Rain = 0
KAOS 141245Z 14010KT M04/M04 A3028 RMK A01 T10371043  RH  096%=      5-min Rain = 0
KAOS 141250Z 15010KT M04/M04 A3028 RMK A01 T10371042  RH  096%=      5-min Rain = 0
KAOS 141255Z 14011KT M04/M04 A3028 RMK A01 T10371043  RH  097%=      5-min Rain = 0
KAOS 141300Z 15010KT M04/M04 A3028 RMK A01 T10381043  RH  097%=      5-min Rain = 0
KAOS 141305Z 14009KT M04/M04 A3028 RMK A01 T10371042  RH  097%=      5-min Rain = 0
KAOS 141310Z 13009KT M04/M04 A3028 RMK A01 T10381042  RH  097%=      5-min Rain = 0
KAOS 141315Z 14008KT M04/M04 A3028 RMK A01 T10371041  RH  097%=      5-min Rain = 0
KAOS 141320Z 14009KT M04/M04 A3029 RMK A01 T10361041  RH  097%=      5-min Rain = 0
KAOS 141325Z 14009KT M04/M04 A3029 RMK A01 T10361040  RH  098%=      5-min Rain = 0
KAOS 141330Z 14010KT M04/M04 A3029 RMK A01 T10371040  RH  098%=      5-min Rain = 0
KAOS 141335Z 14010KT M04/M04 A3029 RMK A01 T10371041  RH  098%=      5-min Rain = 0
KAOS 141340Z 14009KT M04/M04 A3029 RMK A01 T10371041  RH  098%=      5-min Rain = 0
KAOS 141345Z 14010KT M04/M04 A3029 RMK A01 T10371041  RH  098%=      5-min Rain = 0
KAOS 141350Z 14010KT M04/M04 A3029 RMK A01 T10381041  RH  098%=      5-min Rain = 0
KAOS 141355Z 15010KT M04/M04 A3029 RMK A01 T10371041  RH  098%=      5-min Rain = 0
KAOS 141400Z 15011KT M04/M04 A3029 RMK A01 T10371041  RH  098%=      5-min Rain = 0
KAOS 141405Z 15010KT M04/M04 A3029 RMK A01 T10371040  RH  098%=      5-min Rain = 0
KAOS 141410Z 16010KT M04/M04 A3029 RMK A01 T10361040  RH  098%=      5-min Rain = 0
KAOS 141415Z 15009KT M04/M04 A3029 RMK A01 T10361039  RH  098%=      5-min Rain = 0
KAOS 141420Z 15011KT M04/M04 A3029 RMK A01 T10371040  RH  098%=      5-min Rain = 0
KAOS 141425Z 15010KT M04/M04 A3029 RMK A01 T10371040  RH  098%=      5-min Rain = 0
KAOS 141430Z 16010KT M04/M04 A3029 RMK A01 T10371040  RH  098%=      5-min Rain = 0
KAOS 141435Z 15011KT M04/M04 A3029 RMK A01 T10371040  RH  098%=      5-min Rain = 0
KAOS 141440Z 15010KT M04/M04 A3029 RMK A01 T10371040  RH  098%=      5-min Rain = 0
KAOS 141445Z 15009KT M04/M04 A3029 RMK A01 T10361039  RH  098%=      5-min Rain = 0
KAOS 141450Z 15010KT M04/M04 A3029 RMK A01 T10361039  RH  098%=      5-min Rain = 0
KAOS 141455Z 14009KT M04/M04 A303 RMK A01 T10371040  RH  098%=      5-min Rain = 0
KAOS 141500Z 14009KT M04/M04 A303 RMK A01 T10371040  RH  098%=      5-min Rain = 0
KAOS 141505Z 14010KT M04/M04 A303 RMK A01 T10361040  RH  098%=      5-min Rain = 0
KAOS 141510Z 14008KT M04/M04 A303 RMK A01 T10351038  RH  098%=      5-min Rain = 0
KAOS 141515Z 15009KT M03/M04 A303 RMK A01 T10341037  RH  098%=      5-min Rain = 0
KAOS 141520Z 14009KT M03/M04 A303 RMK A01 T10341037  RH  098%=      5-min Rain = 0
KAOS 141525Z 15009KT M03/M04 A303 RMK A01 T10341037  RH  098%=      5-min Rain = 0
KAOS 141530Z 14010KT M03/M04 A303 RMK A01 T10341037  RH  098%=      5-min Rain = 0
KAOS 141535Z 15009KT M03/M04 A303 RMK A01 T10331036  RH  098%=      5-min Rain = 0
KAOS 141540Z 15009KT M03/M04 A303 RMK A01 T10321036  RH  098%=      5-min Rain = 0
KAOS 141545Z 15008KT M03/M04 A303 RMK A01 T10321035  RH  098%=      5-min Rain = 0
KAOS 141550Z 14009KT M03/M03 A303 RMK A01 T10311034  RH  098%=      5-min Rain = 0
KAOS 141555Z 15010KT M03/M04 A303 RMK A01 T10311035  RH  098%=      5-min Rain = 0
KAOS 141600Z 15009KT M03/M03 A303 RMK A01 T10311034  RH  098%=      5-min Rain = 0
KAOS 141605Z 15009KT M03/M03 A303 RMK A01 T10291033  RH  098%=      5-min Rain = 0
KAOS 141610Z 15009KT M03/M03 A303 RMK A01 T10301033  RH  098%=      5-min Rain = 0
KAOS 141615Z 15010KT M03/M03 A303 RMK A01 T10301033  RH  098%=      5-min Rain = 0
KAOS 141620Z 15009KT M03/M03 A303 RMK A01 T10291032  RH  098%=      5-min Rain = 0
KAOS 141625Z 16008KT M03/M03 A3029 RMK A01 T10281031  RH  098%=      5-min Rain = 0
KAOS 141630Z 16009KT M03/M03 A3029 RMK A01 T10271030  RH  098%=      5-min Rain = 0
KAOS 141635Z 16011KT M03/M03 A3029 RMK A01 T10261030  RH  098%=      5-min Rain = 0
KAOS 141640Z 16010KT M03/M03 A3029 RMK A01 T10261029  RH  098%=      5-min Rain = 0
KAOS 141645Z 15009KT M03/M03 A3029 RMK A01 T10261029  RH  098%=      5-min Rain = 0
KAOS 141650Z 15009KT M02/M03 A3029 RMK A01 T10241027  RH  098%=      5-min Rain = 0
KAOS 141655Z 15009KT M02/M03 A3029 RMK A01 T10241027  RH  098%=      5-min Rain = 0
KAOS 141700Z 15009KT M02/M03 A3029 RMK A01 T10231027  RH  098%=      5-min Rain = 0
KAOS 141705Z 16009KT M02/M02 A3029 RMK A01 T10211024  RH  099%=      5-min Rain = 0
KAOS 141710Z 16010KT M02/M02 A3028 RMK A01 T10201023  RH  099%=      5-min Rain = 0
KAOS 141715Z 16009KT M02/M02 A3028 RMK A01 T10191022  RH  099%=      5-min Rain = 0
KAOS 141720Z 17010KT M02/M02 A3028 RMK A01 T10181021  RH  099%=      5-min Rain = 0
KAOS 141725Z 17010KT M02/M02 A3028 RMK A01 T10171020  RH  099%=      5-min Rain = 0
KAOS 141730Z 18011KT M02/M02 A3028 RMK A01 T10171020  RH  099%=      5-min Rain = 0
KAOS 141735Z 17011KT M02/M02 A3028 RMK A01 T10161019  RH  099%=      5-min Rain = 0
KAOS 141740Z 18011KT M01/M02 A3028 RMK A01 T10141017  RH  099%=      5-min Rain = 0
KAOS 141745Z 17012KT M02/M02 A3028 RMK A01 T10151018  RH  099%=      5-min Rain = 0
KAOS 141750Z 18012KT M01/M02 A3028 RMK A01 T10141018  RH  099%=      5-min Rain = 0
KAOS 141755Z 17012KT M01/M02 A3028 RMK A01 T10131016  RH  099%=      5-min Rain = 0
KAOS 141800Z 18012KT M01/M01 A3027 RMK A01 T10111014  RH  099%=      5-min Rain = 0
KAOS 141805Z 18012KT M01/M01 A3027 RMK A01 T10101013  RH  099%=      5-min Rain = 0
KAOS 141810Z 18012KT M01/M01 A3027 RMK A01 T10091012  RH  098%=      5-min Rain = 0
KAOS 141815Z 18012KT M01/M01 A3027 RMK A01 T10081011  RH  098%=      5-min Rain = 0
KAOS 141820Z 18013KT M01/M01 A3027 RMK A01 T10081013  RH  098%=      5-min Rain = 0
KAOS 141825Z 18013KT M01/M01 A3026 RMK A01 T10071012  RH  097%=      5-min Rain = 0
KAOS 141830Z 19013KT M01/M01 A3026 RMK A01 T10061012  RH  096%=      5-min Rain = 0
KAOS 141835Z 18012KT M01/M01 A3026 RMK A01 T10061013  RH  096%=      5-min Rain = 0
KAOS 141840Z 19012KT M01/M01 A3026 RMK A01 T10051012  RH  096%=      5-min Rain = 0
KAOS 141845Z 19011KT M00/M01 A3026 RMK A01 T10041013  RH  095%=      5-min Rain = 0
KAOS 141850Z 19013KT M00/M01 A3025 RMK A01 T10031012  RH  095%=      5-min Rain = 0
KAOS 141855Z 18012KT M00/M01 A3025 RMK A01 T10021012  RH  094%=      5-min Rain = 0
KAOS 141900Z 17012KT M00/M01 A3024 RMK A01 T10031012  RH  094%=      5-min Rain = 0
KAOS 141905Z 18010KT M00/M01 A3024 RMK A01 T10021011  RH  095%=      5-min Rain = 0
KAOS 141910Z 19011KT M00/M01 A3024 RMK A01 T10011009  RH  095%=      5-min Rain = 0
KAOS 141915Z 18013KT 00/01 A3024 RMK A01 T00-00-10  RH  094%=      5-min Rain = 0
KAOS 141920Z 19012KT 00/01 A3024 RMK A01 T00-00-11  RH  093%=      5-min Rain = 0
KAOS 141925Z 19012KT 00/M01 A3023 RMK A01 T00021010  RH  093%=      5-min Rain = 0
KAOS 141930Z 18012KT 00/M01 A3023 RMK A01 T00021011  RH  092%=      5-min Rain = 0
KAOS 141935Z 19011KT 00/M01 A3023 RMK A01 T00041009  RH  092%=      5-min Rain = 0
KAOS 141940Z 18012KT 00/M01 A3023 RMK A01 T00031009  RH  092%=      5-min Rain = 0
KAOS 141945Z 19012KT 00/M01 A3023 RMK A01 T00031009  RH  093%=      5-min Rain = 0
KAOS 141950Z 18012KT 00/M01 A3023 RMK A01 T00041008  RH  093%=      5-min Rain = 0
KAOS 141955Z 19012KT 00/M01 A3022 RMK A01 T00031009  RH  093%=      5-min Rain = 0
KAOS 142000Z 18012KT 00/M01 A3021 RMK A01 T00041008  RH  093%=      5-min Rain = 0
KAOS 142005Z 17012KT 00/M01 A3021 RMK A01 T00041007  RH  093%=      5-min Rain = 0
KAOS 142010Z 17011KT 00/M01 A3021 RMK A01 T00041006  RH  094%=      5-min Rain = 0
KAOS 142015Z 17013KT 00/M01 A302 RMK A01 T00031007  RH  094%=      5-min Rain = 0
KAOS 142020Z 18012KT 00/M01 A302 RMK A01 T00031007  RH  094%=      5-min Rain = 0
KAOS 142025Z 18013KT 00/M01 A3019 RMK A01 T00041006  RH  094%=      5-min Rain = 0
KAOS 142030Z 18013KT 01/M01 A3019 RMK A01 T00061007  RH  092%=      5-min Rain = 0
KAOS 142035Z 18012KT 01/M01 A3019 RMK A01 T00061007  RH  092%=      5-min Rain = 0
KAOS 142040Z 17013KT 01/M01 A3018 RMK A01 T00061006  RH  093%=      5-min Rain = 0
KAOS 142045Z 17015KT 01/M01 A3018 RMK A01 T00061007  RH  092%=      5-min Rain = 0
KAOS 142050Z 18012G17KT 01/M01 A3018 RMK A01 T00071006  RH  092%=      5-min Rain = 0
KAOS 142055Z 18012KT 01/M01 A3018 RMK A01 T00091005  RH  091%=      5-min Rain = 0
KAOS 142100Z 18014KT 01/M01 A3018 RMK A01 T00101006  RH  090%=      5-min Rain = 0
KAOS 142105Z 18014G20KT 01/M01 A3017 RMK A01 T00101007  RH  090%=      5-min Rain = 0
KAOS 142110Z 17014KT 01/M01 A3017 RMK A01 T00091007  RH  090%=      5-min Rain = 0
KAOS 142115Z 18013KT 01/M01 A3017 RMK A01 T00091006  RH  091%=      5-min Rain = 0
KAOS 142120Z 18012G17KT 01/M01 A3017 RMK A01 T00091005  RH  091%=      5-min Rain = 0
KAOS 142125Z 17013KT 01/M01 A3017 RMK A01 T00101005  RH  091%=      5-min Rain = 0
KAOS 142130Z 17012G17KT 01/M00 A3017 RMK A01 T00111004  RH  090%=      5-min Rain = 0
KAOS 142135Z 18013KT 01/M00 A3017 RMK A01 T00121004  RH  090%=      5-min Rain = 0
KAOS 142140Z 18013KT 01/M01 A3017 RMK A01 T00121005  RH  090%=      5-min Rain = 0
KAOS 142145Z 17013KT 01/M00 A3016 RMK A01 T00131004  RH  089%=      5-min Rain = 0
KAOS 142150Z 18013KT 02/M00 A3016 RMK A01 T00151004  RH  088%=      5-min Rain = 0
KAOS 142155Z 18013KT 02/M00 A3016 RMK A01 T00151004  RH  088%=      5-min Rain = 0
KAOS 142200Z 17013KT 02/M00 A3016 RMK A01 T00161003  RH  088%=      5-min Rain = 0
KAOS 142205Z 17014KT 02/M00 A3016 RMK A01 T00151003  RH  088%=      5-min Rain = 0
KAOS 142210Z 18012KT 02/M00 A3016 RMK A01 T00161003  RH  089%=      5-min Rain = 0
KAOS 142215Z 18013KT 02/M00 A3016 RMK A01 T00171003  RH  087%=      5-min Rain = 0
KAOS 142220Z 18011KT 02/M00 A3016 RMK A01 T00181002  RH  088%=      5-min Rain = 0
KAOS 142225Z 18013KT 02/M00 A3015 RMK A01 T00191001  RH  088%=      5-min Rain = 0
KAOS 142230Z 18014KT 02/M00 A3015 RMK A01 T00161003  RH  088%=      5-min Rain = 0
KAOS 142235Z 17012KT 02/M00 A3015 RMK A01 T00171003  RH  088%=      5-min Rain = 0
KAOS 142240Z 18012KT 02/M00 A3015 RMK A01 T00181002  RH  087%=      5-min Rain = 0
KAOS 142245Z 17012KT 02/M00 A3015 RMK A01 T00191001  RH  088%=      5-min Rain = 0
KAOS 142250Z 17013KT 02/M00 A3015 RMK A01 T00171003  RH  088%=      5-min Rain = 0
KAOS 142255Z 17013KT 02/M00 A3015 RMK A01 T00181002  RH  088%=      5-min Rain = 0
KAOS 142300Z 16013KT 02/M00 A3015 RMK A01 T00181002  RH  088%=      5-min Rain = 0
KAOS 142305Z 17014KT 02/M00 A3015 RMK A01 T00181002  RH  088%=      5-min Rain = 0
KAOS 142310Z 17013KT 02/M00 A3015 RMK A01 T00181002  RH  088%=      5-min Rain = 0
KAOS 142315Z 16014KT 02/M00 A3014 RMK A01 T00181002  RH  088%=      5-min Rain = 0
KAOS 142320Z 16013KT 02/M00 A3014 RMK A01 T00171002  RH  088%=      5-min Rain = 0
KAOS 142325Z 17013KT 02/M00 A3014 RMK A01 T00171002  RH  088%=      5-min Rain = 0
KAOS 142330Z 16015KT 02/M00 A3014 RMK A01 T00161003  RH  088%=      5-min Rain = 0
KAOS 142335Z 16014KT 02/M00 A3014 RMK A01 T00171002  RH  088%=      5-min Rain = 0
KAOS 142340Z 16014KT 02/M00 A3014 RMK A01 T00171002  RH  088%=      5-min Rain = 0
KAOS 142345Z 16014KT 02/M00 A3014 RMK A01 T00171002  RH  088%=      5-min Rain = 0
KAOS 142350Z 17013KT 02/M00 A3014 RMK A01 T00171002  RH  089%=      5-min Rain = 0
KAOS 142355Z 17013KT 02/M00 A3014 RMK A01 T00161002  RH  089%=      5-min Rain = 0
KAOS 150000Z 16014KT 02/M00 A3014 RMK A01 T00161003  RH  089%=      5-min Rain = 0
KAOS 150005Z 16016KT 01/M00 A3014 RMK A01 T00141004  RH  089%=      5-min Rain = 0
KAOS 150010Z 16014KT 01/M01 A3014 RMK A01 T00131005  RH  089%=      5-min Rain = 0
KAOS 150015Z 16012KT 01/M00 A3014 RMK A01 T00131004  RH  089%=      5-min Rain = 0
KAOS 150020Z 16013KT 01/M00 A3015 RMK A01 T00141003  RH  089%=      5-min Rain = 0
KAOS 150025Z 17012KT 01/M00 A3015 RMK A01 T00131003  RH  090%=      5-min Rain = 0
KAOS 150030Z 16014KT 01/M00 A3015 RMK A01 T00131004  RH  090%=      5-min Rain = 0
KAOS 150035Z 17015KT 01/M00 A3015 RMK A01 T00121004  RH  090%=      5-min Rain = 0
KAOS 150040Z 18013KT 01/M01 A3015 RMK A01 T00101005  RH  090%=      5-min Rain = 0
KAOS 150045Z 17013KT 01/M00 A3015 RMK A01 T00111004  RH  091%=      5-min Rain = 0
KAOS 150050Z 17015KT 01/M00 A3015 RMK A01 T00121004  RH  090%=      5-min Rain = 0
KAOS 150055Z 17013KT 01/M00 A3015 RMK A01 T00121004  RH  091%=      5-min Rain = 0
KAOS 150100Z 18011KT 01/M00 A3015 RMK A01 T00101004  RH  091%=      5-min Rain = 0
KAOS 150105Z 18009KT 01/M01 A3015 RMK A01 T00101005  RH  091%=      5-min Rain = 0
KAOS 150110Z 18009KT 01/M01 A3015 RMK A01 T00081006  RH  091%=      5-min Rain = 0
KAOS 150115Z 18008KT 01/M01 A3014 RMK A01 T00061007  RH  092%=      5-min Rain = 0
KAOS 150120Z 18008KT 00/M01 A3014 RMK A01 T00031009  RH  092%=      5-min Rain = 0
KAOS 150125Z 18008KT 00/M01 A3014 RMK A01 T00021009  RH  093%=      5-min Rain = 0
KAOS 150130Z 18007KT 00/01 A3014 RMK A01 T00000-10  RH  093%=      5-min Rain = 0
KAOS 150135Z 18007KT M00/M01 A3015 RMK A01 T10011011  RH  094%=      5-min Rain = 0
KAOS 150140Z 18007KT M00/M01 A3015 RMK A01 T10031013  RH  094%=      5-min Rain = 0
KAOS 150145Z 18007KT M01/M01 A3014 RMK A01 T10051014  RH  094%=      5-min Rain = 0
KAOS 150150Z 18006KT M01/M02 A3014 RMK A01 T10071016  RH  094%=      5-min Rain = 0
KAOS 150155Z 17005KT M01/M02 A3014 RMK A01 T10081017  RH  095%=      5-min Rain = 0
KAOS 150200Z 17004KT M01/M02 A3014 RMK A01 T10101018  RH  095%=      5-min Rain = 0
KAOS 150205Z 16003KT M01/M02 A3014 RMK A01 T10111019  RH  095%=      5-min Rain = 0
KAOS 150210Z 16003KT M01/M02 A3014 RMK A01 T10101018  RH  096%=      5-min Rain = 0
KAOS 150215Z 15003KT M01/M02 A3014 RMK A01 T10101017  RH  096%=      5-min Rain = 0
KAOS 150220Z 13002KT M01/M02 A3014 RMK A01 T10111017  RH  096%=      5-min Rain = 0
KAOS 150225Z 13003KT M01/M02 A3014 RMK A01 T10121018  RH  096%=      5-min Rain = 0
KAOS 150230Z 13004KT M01/M02 A3014 RMK A01 T10121019  RH  096%=      5-min Rain = 0
KAOS 150235Z 13006KT M01/M02 A3014 RMK A01 T10141020  RH  096%=      5-min Rain = 0
KAOS 150240Z 14006KT M01/M02 A3014 RMK A01 T10141020  RH  097%=      5-min Rain = 0
KAOS 150245Z 14007KT M01/M02 A3014 RMK A01 T10131018  RH  097%=      5-min Rain = 0
KAOS 150250Z 14006KT M01/M02 A3014 RMK A01 T10121018  RH  097%=      5-min Rain = 0
KAOS 150255Z 15006KT M01/M02 A3014 RMK A01 T10141019  RH  097%=      5-min Rain = 0
KAOS 150300Z 15005KT M02/M02 A3015 RMK A01 T10151020  RH  097%=      5-min Rain = 0
KAOS 150305Z 15005KT M02/M02 A3015 RMK A01 T10161021  RH  097%=      5-min Rain = 0
KAOS 150310Z 15007KT M02/M02 A3014 RMK A01 T10171022  RH  097%=      5-min Rain = 0
KAOS 150315Z 15008KT M02/M02 A3014 RMK A01 T10161021  RH  097%=      5-min Rain = 0
KAOS 150320Z 15009KT M01/M02 A3014 RMK A01 T10131018  RH  098%=      5-min Rain = 0
KAOS 150325Z 15008KT M01/M02 A3014 RMK A01 T10121017  RH  098%=      5-min Rain = 0
KAOS 150330Z 13007KT M01/M02 A3014 RMK A01 T10131018  RH  097%=      5-min Rain = 0
KAOS 150335Z 13006KT M01/M02 A3014 RMK A01 T10121017  RH  098%=      5-min Rain = 0
KAOS 150340Z 12006KT M01/M02 A3014 RMK A01 T10121017  RH  098%=      5-min Rain = 0
KAOS 150345Z 11006KT M01/M02 A3014 RMK A01 T10131018  RH  098%=      5-min Rain = 0
KAOS 150350Z 11004KT M02/M02 A3014 RMK A01 T10151019  RH  097%=      5-min Rain = 0
KAOS 150355Z 13003KT M02/M02 A3014 RMK A01 T10151020  RH  097%=      5-min Rain = 0
KAOS 150400Z 15004KT M02/M02 A3014 RMK A01 T10151020  RH  098%=      5-min Rain = 0
KAOS 150405Z 16005KT M02/M02 A3014 RMK A01 T10161021  RH  098%=      5-min Rain = 0
KAOS 150410Z 15007KT M02/M02 A3013 RMK A01 T10161020  RH  098%=      5-min Rain = 0
KAOS 150415Z 15008KT M02/M02 A3013 RMK A01 T10171021  RH  098%=      5-min Rain = 0
KAOS 150420Z 15009KT M02/M02 A3013 RMK A01 T10181022  RH  098%=      5-min Rain = 0
KAOS 150425Z 15009KT M02/M02 A3012 RMK A01 T10171021  RH  098%=      5-min Rain = 0
KAOS 150430Z 15011KT M02/M02 A3012 RMK A01 T10161020  RH  098%=      5-min Rain = 0
KAOS 150435Z 15011KT M02/M02 A3012 RMK A01 T10151019  RH  098%=      5-min Rain = 0
KAOS 150440Z 15010KT M01/M02 A3012 RMK A01 T10141018  RH  098%=      5-min Rain = 0
KAOS 150445Z 16010KT M01/M02 A3012 RMK A01 T10131017  RH  098%=      5-min Rain = 0
KAOS 150450Z 16009KT M01/M02 A3012 RMK A01 T10121016  RH  098%=      5-min Rain = 0
KAOS 150455Z 16008KT M01/M02 A3012 RMK A01 T10121016  RH  098%=      5-min Rain = 0
KAOS 150500Z 15008KT M01/M02 A3011 RMK A01 T10121017  RH  098%=      5-min Rain = 0
KAOS 150505Z 15008KT M01/M02 A3011 RMK A01 T10131017  RH  098%=      5-min Rain = 0
KAOS 150510Z 15008KT M01/M02 A3011 RMK A01 T10131017  RH  098%=      5-min Rain = 0
KAOS 150515Z 16007KT M01/M02 A3011 RMK A01 T10121017  RH  098%=      5-min Rain = 0
KAOS 150520Z 16006KT M01/M02 A3011 RMK A01 T10121017  RH  097%=      5-min Rain = 0
KAOS 150525Z 16004KT M01/M02 A3012 RMK A01 T10121017  RH  097%=      5-min Rain = 0
KAOS 150530Z 15003KT M01/M02 A3011 RMK A01 T10131018  RH  097%=      5-min Rain = 0
KAOS 150535Z 17002KT M01/M02 A3011 RMK A01 T10111016  RH  097%=      5-min Rain = 0
KAOS 150540Z 17002KT M01/M01 A3011 RMK A01 T10091014  RH  097%=      5-min Rain = 0
KAOS 150545Z 17002KT M01/M01 A3011 RMK A01 T10051010  RH  098%=      5-min Rain = 0
KAOS 150550Z 16004KT M00/M01 A3011 RMK A01 T10021007  RH  097%=      5-min Rain = 0
KAOS 150555Z 17005KT 00/01 A3011 RMK A01 T000000-5  RH  097%=      5-min Rain = 0

Page generated in 0.0222 seconds.